SWU44F LIPB-LIPB

Flight info

Callsign SWU44F
Flight time 0h 35m
Altitude 11000
Route DCT OZE DCT LIDT DCT
Aircraft AT76/M-SDFGIRY/S

Departure

Time 2026-04-25 10:22
Airport Bolzano Airport (LIPB)

Arrival

Time 2026-04-25 10:57
Airport Bolzano Airport (LIPB)
Time Latitude Longitude Altitude Speed Heading
2026-04-25 10:11 46.46317 11.32894 787 ft 0 kts 101°
2026-04-25 10:19 46.46316 11.32899 787 ft 6 kts 107°
2026-04-25 10:19 46.46302 11.32896 787 ft 9 kts 219°
2026-04-25 10:19 46.46236 11.32782 786 ft 13 kts 258°
2026-04-25 10:20 46.46188 11.32679 787 ft 17 kts 191°
2026-04-25 10:20 46.46071 11.32647 785 ft 18 kts 190°
2026-04-25 10:20 46.45946 11.32615 783 ft 19 kts 189°
2026-04-25 10:20 46.45797 11.32577 782 ft 28 kts 190°
2026-04-25 10:21 46.45569 11.32523 778 ft 31 kts 190°
2026-04-25 10:21 46.45456 11.32546 777 ft 3 kts 195°
2026-04-25 10:21 46.45459 11.32506 777 ft 8 kts 310°
2026-04-25 10:21 46.45491 11.32502 777 ft 2 kts 11°
2026-04-25 10:22 46.45526 11.32512 778 ft 10 kts 11°
2026-04-25 10:22 46.45719 11.32558 780 ft 67 kts
2026-04-25 10:22 46.46740 11.32823 1023 ft 134 kts
2026-04-25 10:22 46.47699 11.33007 1718 ft 146 kts
2026-04-25 10:23 46.48691 11.32630 2471 ft 155 kts 318°
2026-04-25 10:23 46.49072 11.31177 3213 ft 162 kts 264°
2026-04-25 10:23 46.48512 11.29787 3953 ft 165 kts 224°
2026-04-25 10:23 46.47671 11.28619 4722 ft 175 kts 223°
2026-04-25 10:24 46.46580 11.27809 5465 ft 184 kts 183°
2026-04-25 10:24 46.45309 11.28011 6221 ft 189 kts 169°
2026-04-25 10:24 46.43971 11.28399 6904 ft 203 kts 168°
2026-04-25 10:24 46.42525 11.28803 7332 ft 223 kts 170°
2026-04-25 10:25 46.40939 11.29178 7800 ft 235 kts 172°
2026-04-25 10:25 46.39315 11.28956 8286 ft 243 kts 198°
2026-04-25 10:25 46.37677 11.28140 8771 ft 252 kts 201°
2026-04-25 10:25 46.36000 11.27253 9260 ft 258 kts 201°
2026-04-25 10:26 46.34297 11.26384 9864 ft 264 kts 199°
2026-04-25 10:26 46.32528 11.25558 10301 ft 267 kts 198°
2026-04-25 10:26 46.30733 11.24749 10727 ft 270 kts 198°
2026-04-25 10:26 46.28991 11.23972 11185 ft 261 kts 198°
2026-04-25 10:27 46.27258 11.23188 11625 ft 257 kts 198°
2026-04-25 10:27 46.25558 11.22430 12043 ft 255 kts 198°
2026-04-25 10:27 46.23844 11.21662 12136 ft 265 kts 198°
2026-04-25 10:27 46.22046 11.20866 12152 ft 274 kts 198°
2026-04-25 10:28 46.20190 11.20042 12166 ft 281 kts 198°
2026-04-25 10:28 46.18299 11.19195 12174 ft 286 kts 198°
2026-04-25 10:28 46.16402 11.18347 12162 ft 288 kts 198°
2026-04-25 10:28 46.14464 11.17477 12178 ft 290 kts 198°
2026-04-25 10:29 46.12583 11.16547 12172 ft 287 kts 207°
2026-04-25 10:29 46.11097 11.14688 12168 ft 276 kts 237°
2026-04-25 10:29 46.10534 11.12242 11982 ft 247 kts 269°
2026-04-25 10:29 46.10934 11.09938 11385 ft 240 kts 302°
2026-04-25 10:30 46.12155 11.08377 10784 ft 236 kts 336°
2026-04-25 10:30 46.13212 11.08050 10387 ft 234 kts
2026-04-25 10:30 46.15149 11.09248 9562 ft 234 kts 46°
2026-04-25 10:30 46.16119 11.11097 8899 ft 231 kts 53°
2026-04-25 10:31 46.17074 11.12955 8274 ft 230 kts 52°
2026-04-25 10:31 46.18064 11.14762 7713 ft 227 kts 48°
2026-04-25 10:31 46.19124 11.16321 7452 ft 212 kts 41°
2026-04-25 10:31 46.20235 11.17581 7458 ft 201 kts 33°
2026-04-25 10:32 46.21014 11.18294 7444 ft 194 kts 30°
2026-04-25 10:32 46.22576 11.19523 7359 ft 193 kts 25°
2026-04-25 10:32 46.23806 11.20313 7307 ft 193 kts 22°
2026-04-25 10:32 46.24651 11.20782 7176 ft 195 kts 20°
2026-04-25 10:33 46.25867 11.21611 6870 ft 191 kts 27°
2026-04-25 10:33 46.27017 11.22481 6596 ft 190 kts 26°
2026-04-25 10:33 46.28201 11.23319 6234 ft 189 kts 25°
2026-04-25 10:33 46.29400 11.24069 6007 ft 184 kts 22°
2026-04-25 10:34 46.30562 11.24728 5778 ft 181 kts 21°
2026-04-25 10:34 46.31745 11.25379 5486 ft 182 kts 21°
2026-04-25 10:34 46.32927 11.26033 5191 ft 183 kts 21°
2026-04-25 10:34 46.34084 11.26678 4891 ft 167 kts 21°
2026-04-25 10:35 46.35087 11.27237 4596 ft 145 kts 21°
2026-04-25 10:35 46.36012 11.27747 4152 ft 140 kts 21°
2026-04-25 10:35 46.36907 11.28245 3847 ft 137 kts 21°
2026-04-25 10:35 46.37797 11.28743 3568 ft 135 kts 21°
2026-04-25 10:36 46.38665 11.29222 3352 ft 135 kts 21°
2026-04-25 10:36 46.39553 11.29661 3070 ft 132 kts 12°
2026-04-25 10:36 46.40436 11.29821 2666 ft 125 kts
2026-04-25 10:36 46.41224 11.30183 2276 ft 123 kts 28°
2026-04-25 10:37 46.41947 11.30822 1891 ft 118 kts 33°
2026-04-25 10:37 46.42633 11.31502 1580 ft 122 kts 35°
2026-04-25 10:37 46.43414 11.31947 1306 ft 122 kts 11°
2026-04-25 10:37 46.44251 11.32154 1044 ft 121 kts 11°
2026-04-25 10:38 46.45053 11.32382 829 ft 116 kts 12°
2026-04-25 10:38 46.45789 11.32586 802 ft 99 kts 11°
2026-04-25 10:38 46.46523 11.32779 886 ft 123 kts
2026-04-25 10:38 46.47362 11.32881 1662 ft 127 kts 357°
2026-04-25 10:39 46.48269 11.32733 2408 ft 136 kts 353°
2026-04-25 10:39 46.49246 11.32582 3174 ft 145 kts 354°
2026-04-25 10:39 46.50313 11.32553 3663 ft 172 kts
2026-04-25 10:39 46.51622 11.32520 3783 ft 201 kts 336°
2026-04-25 10:40 46.52310 11.31004 4641 ft 199 kts 275°
2026-04-25 10:40 46.51486 11.29314 4519 ft 222 kts 206°
2026-04-25 10:40 46.49988 11.28430 4820 ft 240 kts 197°
2026-04-25 10:40 46.48377 11.27928 5574 ft 229 kts 189°
2026-04-25 10:41 46.46964 11.27035 6324 ft 224 kts 215°
2026-04-25 10:41 46.45673 11.25738 7057 ft 226 kts 215°
2026-04-25 10:41 46.44337 11.24394 7536 ft 241 kts 216°
2026-04-25 10:41 46.42935 11.22969 7874 ft 250 kts 216°
2026-04-25 10:42 46.41506 11.21581 8640 ft 244 kts 209°
2026-04-25 10:42 46.40003 11.20521 9458 ft 242 kts 206°
2026-04-25 10:42 46.38473 11.19535 10364 ft 240 kts 204°
2026-04-25 10:42 46.36934 11.18572 11089 ft 239 kts 204°
2026-04-25 10:43 46.35403 11.17627 11706 ft 247 kts 201°
2026-04-25 10:43 46.33744 11.16900 11959 ft 251 kts 195°
2026-04-25 10:43 46.32014 11.16255 12076 ft 261 kts 194°
2026-04-25 10:43 46.30231 11.15611 12161 ft 271 kts 194°
2026-04-25 10:44 46.28376 11.14942 12180 ft 275 kts 194°
2026-04-25 10:44 46.26522 11.14279 12210 ft 273 kts 194°
2026-04-25 10:44 46.24662 11.13629 12209 ft 273 kts 193°
2026-04-25 10:44 46.22843 11.12997 12199 ft 272 kts 194°
2026-04-25 10:45 46.21004 11.12338 12211 ft 272 kts 194°
2026-04-25 10:45 46.19159 11.11685 12122 ft 265 kts 194°
2026-04-25 10:45 46.17394 11.11047 11398 ft 263 kts 194°
2026-04-25 10:45 46.15670 11.10229 10671 ft 259 kts 201°
2026-04-25 10:46 46.13992 11.09264 9941 ft 258 kts 203°
2026-04-25 10:46 46.12340 11.08273 9157 ft 255 kts 203°
2026-04-25 10:46 46.10638 11.07824 8377 ft 250 kts 174°
2026-04-25 10:46 46.09066 11.08748 7701 ft 247 kts 140°
2026-04-25 10:47 46.08154 11.10695 7405 ft 227 kts 105°
2026-04-25 10:47 46.07883 11.12881 7249 ft 218 kts 97°
2026-04-25 10:47 46.07767 11.14946 7186 ft 193 kts 81°
2026-04-25 10:47 46.08392 11.16494 7177 ft 174 kts 33°
2026-04-25 10:48 46.09510 11.17100 7171 ft 172 kts 15°
2026-04-25 10:48 46.10633 11.17560 7187 ft 170 kts 14°
2026-04-25 10:48 46.11792 11.18015 7215 ft 172 kts 14°
2026-04-25 10:48 46.12935 11.18419 7171 ft 169 kts 13°
2026-04-25 10:49 46.14075 11.18820 7208 ft 168 kts 15°
2026-04-25 10:49 46.15192 11.19234 7193 ft 168 kts 13°
2026-04-25 10:49 46.16326 11.19648 7197 ft 167 kts 13°
2026-04-25 10:49 46.17452 11.20042 7170 ft 166 kts 13°
2026-04-25 10:50 46.18575 11.20456 7192 ft 174 kts 12°
2026-04-25 10:50 46.19779 11.20874 7184 ft 181 kts 13°
2026-04-25 10:50 46.20997 11.21315 7169 ft 178 kts 13°
2026-04-25 10:50 46.22218 11.21749 7146 ft 179 kts 13°
2026-04-25 10:51 46.23397 11.22185 7145 ft 174 kts 14°
2026-04-25 10:51 46.24534 11.22625 7181 ft 164 kts 14°
2026-04-25 10:51 46.25560 11.23043 7175 ft 145 kts 16°
2026-04-25 10:51 46.26480 11.23462 7205 ft 134 kts 17°
2026-04-25 10:52 46.27358 11.23880 7138 ft 135 kts 17°
2026-04-25 10:52 46.28246 11.24346 6909 ft 131 kts 19°
2026-04-25 10:52 46.29097 11.24800 6615 ft 129 kts 19°
2026-04-25 10:52 46.29955 11.25229 6342 ft 134 kts 17°
2026-04-25 10:53 46.30861 11.25652 6074 ft 142 kts 17°
2026-04-25 10:53 46.31820 11.26105 5802 ft 146 kts 17°
2026-04-25 10:53 46.32774 11.26558 5466 ft 141 kts 18°
2026-04-25 10:53 46.33664 11.26996 5058 ft 129 kts 19°
2026-04-25 10:54 46.34487 11.27405 4656 ft 124 kts 19°
2026-04-25 10:54 46.35034 11.27676 4256 ft 124 kts 19°
2026-04-25 10:54 46.36156 11.28219 3850 ft 139 kts 18°
2026-04-25 10:54 46.37023 11.28649 3544 ft 127 kts 19°
2026-04-25 10:55 46.37851 11.29060 3269 ft 126 kts 19°
2026-04-25 10:55 46.38681 11.29449 3109 ft 124 kts 18°
2026-04-25 10:55 46.39487 11.29859 2893 ft 124 kts 19°
2026-04-25 10:55 46.40314 11.30281 2619 ft 126 kts 18°
2026-04-25 10:56 46.41139 11.30702 2278 ft 125 kts 21°
2026-04-25 10:56 46.41953 11.31150 1938 ft 125 kts 19°
2026-04-25 10:56 46.42762 11.31592 1589 ft 125 kts 22°
2026-04-25 10:56 46.43564 11.31972 1283 ft 119 kts 14°
2026-04-25 10:57 46.44369 11.32204 1024 ft 117 kts 11°
2026-04-25 10:57 46.45168 11.32413 838 ft 116 kts 10°
2026-04-25 10:57 46.45913 11.32616 784 ft 85 kts
2026-04-25 10:57 46.46164 11.32678 787 ft 21 kts 11°
2026-04-25 10:58 46.46253 11.32724 786 ft 3 kts 83°
2026-04-25 10:58 46.46238 11.32792 786 ft 8 kts 98°
2026-04-25 10:58 46.46241 11.32809 786 ft 2 kts 51°
2026-04-25 10:58 46.46253 11.32830 786 ft 3 kts 64°
2026-04-25 10:59 46.46252 11.32850 786 ft 3 kts 98°
2026-04-25 10:59 46.46250 11.32873 786 ft 0 kts 98°